Time;durP1;ratioP1;P1;durP2;ratioP2;P2;SDS_P1;SDS_P2;PMS_P1;PMS_P2;Temp;Humidity;BMP_temperature;BMP_pressure;BME280_temperature;BME280_humidity;BME280_pressure;Samples;Min_cycle;Max_cycle;Signal;HPM_P1;HPM_P2
2022/05/05 00:03:08;;;;;;;;;;;;;;;8.84;47.59961;102071.9;;;;-74
2022/05/05 00:04:27;;;;;;;6.9;3;;;;;;;;;;;;;-76
2022/05/05 00:08:05;;;;;;;;;;;;;;;8.78;47.54785;102077.4;;;;-76
2022/05/05 00:18:08;;;;;;;;;;;;;;;8.68;47.72656;102082.9;;;;-75
2022/05/05 00:23:05;;;;;;;;;;;;;;;8.62;47.94238;102078;;;;-76
2022/05/05 00:28:05;;;;;;;;;;;;;;;8.57;47.92676;102078.6;;;;-76
2022/05/05 00:33:06;;;;;;;;;;;;;;;8.51;47.875;102079.8;;;;-75
2022/05/05 00:34:27;;;;;;;6.6;2.9;;;;;;;;;;;;;-75
2022/05/05 00:38:05;;;;;;;;;;;;;;;8.47;48.08008;102081.6;;;;-78
2022/05/05 00:43:06;;;;;;;;;;;;;;;8.41;48.20898;102078.4;;;;-75
2022/05/05 00:48:12;;;;;;;;;;;;;;;8.34;48.14551;102071.9;;;;-76
2022/05/05 00:53:05;;;;;;;;;;;;;;;8.31;48.39648;102073.8;;;;-76
2022/05/05 00:58:06;;;;;;;;;;;;;;;8.27;48.12598;102078.9;;;;-76
2022/05/05 01:03:05;;;;;;;;;;;;;;;8.24;48.04492;102079.9;;;;-76
2022/05/05 01:04:27;;;;;;;9.1;3.3;;;;;;;;;;;;;-77
2022/05/05 01:08:06;;;;;;;;;;;;;;;8.22;48.06543;102079;;;;-78
2022/05/05 01:13:05;;;;;;;;;;;;;;;8.2;47.96289;102082.7;;;;-76
2022/05/05 01:18:05;;;;;;;;;;;;;;;8.21;47.81934;102086.8;;;;-75
2022/05/05 01:23:05;;;;;;;;;;;;;;;8.2;47.8291;102087.7;;;;-76
2022/05/05 01:28:17;;;;;;;;;;;;;;;8.17;47.88184;102087.4;;;;-75
2022/05/05 01:33:13;;;;;;;;;;;;;;;8.21;48.28516;102084.4;;;;-75
2022/05/05 01:34:29;;;;;;;5.2;2.8;;;;;;;;;;;;;-75
2022/05/05 01:38:05;;;;;;;;;;;;;;;8.23;48.42188;102080.4;;;;-74
2022/05/05 01:43:05;;;;;;;;;;;;;;;8.23;48.36621;102078.1;;;;-76
2022/05/05 01:48:05;;;;;;;;;;;;;;;8.27;48.21484;102080.7;;;;-77
2022/05/05 01:53:05;;;;;;;;;;;;;;;8.29;48.62793;102080;;;;-76
2022/05/05 01:58:05;;;;;;;;;;;;;;;8.32;48.6084;102073.7;;;;-77
2022/05/05 02:03:12;;;;;;;;;;;;;;;8.33;48.68848;102076.7;;;;-76
2022/05/05 02:04:31;;;;;;;7.9;3;;;;;;;;;;;;;-76
2022/05/05 02:08:05;;;;;;;;;;;;;;;8.36;49.50293;102077.3;;;;-74
2022/05/05 02:13:05;;;;;;;;;;;;;;;8.37;49.69238;102076.5;;;;-76
2022/05/05 02:18:09;;;;;;;;;;;;;;;8.42;49.06445;102078.3;;;;-75
2022/05/05 02:23:05;;;;;;;;;;;;;;;8.48;48.85059;102084.9;;;;-74
2022/05/05 02:28:05;;;;;;;;;;;;;;;8.54;48.50098;102088.3;;;;-75
2022/05/05 02:33:05;;;;;;;;;;;;;;;8.59;49.38477;102090.5;;;;-75
2022/05/05 02:34:28;;;;;;;8.2;3.7;;;;;;;;;;;;;-76
2022/05/05 02:43:08;;;;;;;;;;;;;;;8.7;48.90723;102085;;;;-76
2022/05/05 02:48:06;;;;;;;;;;;;;;;8.75;50.19238;102083.8;;;;-75
2022/05/05 02:54:47;;;;;;;;;;;;;;;8.79;49.64063;102084.5;;;;-76
2022/05/05 02:58:05;;;;;;;;;;;;;;;8.82;49.75488;102085;;;;-75
2022/05/05 03:03:05;;;;;;;;;;;;;;;8.85;50.58301;102082.8;;;;-76
2022/05/05 03:04:28;;;;;;;8.4;3.6;;;;;;;;;;;;;-76
2022/05/05 03:08:05;;;;;;;;;;;;;;;8.89;49.38477;102089.4;;;;-75
2022/05/05 03:13:07;;;;;;;;;;;;;;;8.91;50.01074;102092.7;;;;-75
2022/05/05 03:18:06;;;;;;;;;;;;;;;8.94;50.03613;102090.5;;;;-75
2022/05/05 03:23:05;;;;;;;;;;;;;;;8.95;50.09375;102089.7;;;;-75
2022/05/05 03:28:05;;;;;;;;;;;;;;;8.96;50.17188;102090.3;;;;-75
2022/05/05 03:33:08;;;;;;;;;;;;;;;8.97;50.68359;102095;;;;-76
2022/05/05 03:34:31;;;;;;;8.5;3.7;;;;;;;;;;;;;-76
2022/05/05 03:38:06;;;;;;;;;;;;;;;9;50.31055;102102.7;;;;-76
2022/05/05 03:43:05;;;;;;;;;;;;;;;9.02;50.86914;102106.9;;;;-76
2022/05/05 03:48:05;;;;;;;;;;;;;;;9.05;50.00488;102107.5;;;;-77
2022/05/05 03:53:05;;;;;;;;;;;;;;;9.08;50.26367;102109.2;;;;-75
2022/05/05 03:58:05;;;;;;;;;;;;;;;9.09;51.20996;102107.4;;;;-74
2022/05/05 04:04:29;;;;;;;9.2;3.8;;;;;;;;;;;;;-75
2022/05/05 04:08:05;;;;;;;;;;;;;;;9.15;51.13867;102105.5;;;;-76
2022/05/05 04:13:05;;;;;;;;;;;;;;;9.18;51.46582;102109.5;;;;-76
2022/05/05 04:18:05;;;;;;;;;;;;;;;9.2;50.93457;102106.6;;;;-77
2022/05/05 04:23:05;;;;;;;;;;;;;;;9.24;51.4834;102117;;;;-76
2022/05/05 04:28:05;;;;;;;;;;;;;;;9.26;51.44238;102114.8;;;;-74
2022/05/05 04:33:05;;;;;;;;;;;;;;;9.29;52.25781;102114.1;;;;-76
2022/05/05 04:34:31;;;;;;;7.5;3.6;;;;;;;;;;;;;-76
2022/05/05 04:38:05;;;;;;;;;;;;;;;9.31;52.24902;102119.1;;;;-74
2022/05/05 04:43:06;;;;;;;;;;;;;;;9.37;52.84668;102119.8;;;;-77
2022/05/05 04:48:05;;;;;;;;;;;;;;;9.42;52.65137;102125.7;;;;-75
2022/05/05 04:53:04;;;;;;;;;;;;;;;9.46;51.95508;102128.2;;;;-75
2022/05/05 04:58:05;;;;;;;;;;;;;;;9.51;52.77344;102134.6;;;;-76
2022/05/05 05:03:05;;;;;;;;;;;;;;;9.56;53.02441;102131.6;;;;-74
2022/05/05 05:04:34;;;;;;;7.1;3.5;;;;;;;;;;;;;-74
2022/05/05 05:08:07;;;;;;;;;;;;;;;9.59;52.51563;102137.5;;;;-75
2022/05/05 05:13:07;;;;;;;;;;;;;;;9.67;52.40332;102139.9;;;;-75
2022/05/05 05:18:04;;;;;;;;;;;;;;;9.72;52.30859;102144.4;;;;-76
2022/05/05 05:23:04;;;;;;;;;;;;;;;9.77;52.44922;102150;;;;-75
2022/05/05 05:28:05;;;;;;;;;;;;;;;9.84;53.02441;102155.1;;;;-76
2022/05/05 05:33:05;;;;;;;;;;;;;;;9.93;52.24609;102165.7;;;;-77
2022/05/05 05:34:32;;;;;;;8.5;3.7;;;;;;;;;;;;;-75
2022/05/05 05:38:06;;;;;;;;;;;;;;;10.01;52.26563;102172.8;;;;-76
2022/05/05 05:43:05;;;;;;;;;;;;;;;10.11;52.27734;102175.6;;;;-74
2022/05/05 05:48:08;;;;;;;;;;;;;;;10.21;51.98926;102183.9;;;;-77
2022/05/05 05:53:05;;;;;;;;;;;;;;;10.3;52.51367;102184.2;;;;-76
2022/05/05 05:58:05;;;;;;;;;;;;;;;10.44;53.07617;102182.4;;;;-76
2022/05/05 06:04:34;;;;;;;8.1;3.9;;;;;;;;;;;;;-75
2022/05/05 06:08:06;;;;;;;;;;;;;;;10.75;53.02539;102188.5;;;;-76
2022/05/05 06:13:06;;;;;;;;;;;;;;;10.89;53.06543;102189.9;;;;-75
2022/05/05 06:18:05;;;;;;;;;;;;;;;11.04;52.81445;102194.3;;;;-77
2022/05/05 06:23:05;;;;;;;;;;;;;;;11.19;52.82227;102198.6;;;;-77
2022/05/05 06:28:08;;;;;;;;;;;;;;;11.35;52.53809;102206.4;;;;-81
2022/05/05 06:33:04;;;;;;;;;;;;;;;11.5;52.91504;102210.1;;;;-82
2022/05/05 06:34:33;;;;;;;7.5;3.9;;;;;;;;;;;;;-81
2022/05/05 06:38:04;;;;;;;;;;;;;;;11.68;53.05957;102214.7;;;;-81
2022/05/05 06:43:05;;;;;;;;;;;;;;;11.87;52.92676;102223.1;;;;-82
2022/05/05 06:48:08;;;;;;;;;;;;;;;12.06;52.84863;102223;;;;-81
2022/05/05 06:53:05;;;;;;;;;;;;;;;12.26;52.40137;102224.6;;;;-80
2022/05/05 06:58:05;;;;;;;;;;;;;;;12.47;51.96777;102225.6;;;;-79
2022/05/05 07:03:04;;;;;;;;;;;;;;;12.72;51.53809;102229.1;;;;-80
2022/05/05 07:08:04;;;;;;;;;;;;;;;12.96;51.37598;102234.3;;;;-80
2022/05/05 07:13:04;;;;;;;;;;;;;;;13.22;50.75391;102237.1;;;;-80
2022/05/05 07:18:11;;;;;;;;;;;;;;;13.48;50.36914;102241.3;;;;-81
2022/05/05 07:23:10;;;;;;;;;;;;;;;13.72;50.41895;102238.6;;;;-79
2022/05/05 07:28:06;;;;;;;;;;;;;;;13.94;49.92676;102236.2;;;;-79
2022/05/05 07:33:05;;;;;;;;;;;;;;;14.12;50.02539;102235.1;;;;-81
2022/05/05 07:34:36;;;;;;;11;5.4;;;;;;;;;;;;;-81
2022/05/05 07:38:06;;;;;;;;;;;;;;;14.28;49.3916;102235.2;;;;-79
2022/05/05 07:43:04;;;;;;;;;;;;;;;14.5;49.45996;102237;;;;-81
2022/05/05 07:48:06;;;;;;;;;;;;;;;14.65;49.64648;102240;;;;-81
2022/05/05 07:53:05;;;;;;;;;;;;;;;14.86;48.46387;102242.1;;;;-82
2022/05/05 07:58:04;;;;;;;;;;;;;;;15.04;48.5166;102247.2;;;;-80
2022/05/05 08:03:09;;;;;;;;;;;;;;;15.21;48.57031;102247.1;;;;-80
2022/05/05 08:04:37;;;;;;;19.4;6.5;;;;;;;;;;;;;-81
2022/05/05 08:08:05;;;;;;;;;;;;;;;15.39;48.30664;102254.7;;;;-80
2022/05/05 08:13:06;;;;;;;;;;;;;;;15.53;48.36816;102260.5;;;;-79
2022/05/05 08:18:07;;;;;;;;;;;;;;;15.69;47.85352;102262.8;;;;-80
2022/05/05 08:23:05;;;;;;;;;;;;;;;15.89;47.53613;102267.2;;;;-79
2022/05/05 08:33:09;;;;;;;;;;;;;;;16.24;47.50586;102271.2;;;;-80
2022/05/05 08:34:39;;;;;;;18.9;8.3;;;;;;;;;;;;;-80
2022/05/05 08:38:07;;;;;;;;;;;;;;;16.42;47.16309;102272.9;;;;-80
2022/05/05 08:43:05;;;;;;;;;;;;;;;16.61;47.05957;102278;;;;-81
2022/05/05 08:48:10;;;;;;;;;;;;;;;16.74;46.99316;102279.9;;;;-75
2022/05/05 08:53:06;;;;;;;;;;;;;;;16.9;46.29688;102281.6;;;;-77
2022/05/05 08:58:05;;;;;;;;;;;;;;;17.08;46.05469;102282;;;;-78
2022/05/05 09:03:08;;;;;;;;;;;;;;;17.24;46.0127;102286.7;;;;-75
2022/05/05 09:04:46;;;;;;;17.6;9.4;;;;;;;;;;;;;-78
2022/05/05 09:08:04;;;;;;;;;;;;;;;17.43;45.88672;102294.5;;;;-75
2022/05/05 09:18:17;;;;;;;;;;;;;;;17.66;45.9209;102301.2;;;;-78
2022/05/05 09:23:14;;;;;;;;;;;;;;;17.98;45.18164;102303.8;;;;-77
2022/05/05 09:28:26;;;;;;;;;;;;;;;18.27;44.87988;102308.5;;;;-79
2022/05/05 09:33:10;;;;;;;;;;;;;;;18.4;44.90527;102302.3;;;;
2022/05/05 09:34:43;;;;;;;21;10.4;;;;;;;;;;;;;-77
2022/05/05 09:38:10;;;;;;;;;;;;;;;18.73;44.5166;102299.8;;;;
2022/05/05 09:43:05;;;;;;;;;;;;;;;18.98;44.39453;102308.3;;;;-79
